Bowling Green Warren County Regional Airport Bowling Green US
ICAO: KBWG
IATA: BWG
Category: Medium
Scheduled Services: No

Elevation: 547 ft
TransAlt. 18000 ft.

Airport Communications:
ASOS:127.825
MEMPHIS CNTR:133.85
LOUISVILLE RDO:122.2
CTAF/UNICOM:123

KBWG Zoom In..

Runways:

(A) RW 03 length 6499 ft width 150 ft
ILS 108.75 / hdg 32

(B) RW 12 length 3955 ft width 150 ft
---- / hdg 122

(C) RW 21 length 6499 ft width 150 ft
---- / hdg 212

(D) RW 30 length 3955 ft width 150 ft
---- / hdg 302

Location; KBWG
Day. 15 / Time. 21.53 Zulu
* Altimeter: 30.02
* Temperature: 26° c. 78.8°f.
* Wind from: 220° Speed 06 kn.
Dewpoint: 22° c.
Visibility: 10 Statute Miles.
Clouds: Clear (automated report).

KBWG 152153Z AUTO 22006KT 10SM CLR 26/22 A3002 RMK AO2 SLP160 T02560222 $


Wind From 220°
Speed 06 kn.

 
 
jpsmedia.com for Web Design worldairports.se 2018   terms of use